sensor_id;sensor_type;location;lat;lon;timestamp;P1;durP1;ratioP1;P2;durP2;ratioP2
27145;SDS011;17980;51.744;7.190;2023-05-10T00:01:18;4.97;;;4.57;;
27145;SDS011;17980;51.744;7.190;2023-05-10T00:03:46;6.10;;;4.43;;
27145;SDS011;17980;51.744;7.190;2023-05-10T00:06:13;3.73;;;3.43;;
27145;SDS011;17980;51.744;7.190;2023-05-10T00:08:40;4.60;;;3.53;;
27145;SDS011;17980;51.744;7.190;2023-05-10T00:11:17;3.97;;;3.57;;
27145;SDS011;17980;51.744;7.190;2023-05-10T00:13:44;3.30;;;3.00;;
27145;SDS011;17980;51.744;7.190;2023-05-10T00:16:11;3.00;;;2.80;;
27145;SDS011;17980;51.744;7.190;2023-05-10T00:18:39;3.03;;;2.77;;
27145;SDS011;17980;51.744;7.190;2023-05-10T00:21:19;3.27;;;2.90;;
27145;SDS011;17980;51.744;7.190;2023-05-10T00:23:46;3.53;;;3.23;;
27145;SDS011;17980;51.744;7.190;2023-05-10T00:26:13;5.13;;;4.37;;
27145;SDS011;17980;51.744;7.190;2023-05-10T00:28:42;5.30;;;4.80;;
27145;SDS011;17980;51.744;7.190;2023-05-10T00:31:19;5.93;;;4.80;;
27145;SDS011;17980;51.744;7.190;2023-05-10T00:33:46;7.67;;;5.77;;
27145;SDS011;17980;51.744;7.190;2023-05-10T00:36:13;8.57;;;6.07;;
27145;SDS011;17980;51.744;7.190;2023-05-10T00:38:41;8.63;;;7.17;;
27145;SDS011;17980;51.744;7.190;2023-05-10T00:41:17;9.17;;;8.07;;
27145;SDS011;17980;51.744;7.190;2023-05-10T00:43:46;11.43;;;8.63;;
27145;SDS011;17980;51.744;7.190;2023-05-10T00:46:14;11.00;;;8.20;;
27145;SDS011;17980;51.744;7.190;2023-05-10T00:48:52;15.60;;;9.70;;
27145;SDS011;17980;51.744;7.190;2023-05-10T00:51:19;13.57;;;10.07;;
27145;SDS011;17980;51.744;7.190;2023-05-10T00:53:56;12.27;;;9.83;;
27145;SDS011;17980;51.744;7.190;2023-05-10T00:56:24;12.40;;;9.73;;
27145;SDS011;17980;51.744;7.190;2023-05-10T00:58:54;11.63;;;8.97;;
27145;SDS011;17980;51.744;7.190;2023-05-10T01:01:31;13.03;;;9.80;;
27145;SDS011;17980;51.744;7.190;2023-05-10T01:03:58;12.10;;;9.43;;
27145;SDS011;17980;51.744;7.190;2023-05-10T01:06:25;11.00;;;8.47;;
27145;SDS011;17980;51.744;7.190;2023-05-10T01:09:02;12.07;;;8.87;;
27145;SDS011;17980;51.744;7.190;2023-05-10T01:11:30;10.03;;;7.33;;
27145;SDS011;17980;51.744;7.190;2023-05-10T01:14:07;9.23;;;7.40;;
27145;SDS011;17980;51.744;7.190;2023-05-10T01:16:36;8.37;;;6.33;;
27145;SDS011;17980;51.744;7.190;2023-05-10T01:19:04;4.83;;;4.20;;
27145;SDS011;17980;51.744;7.190;2023-05-10T01:21:37;3.73;;;2.80;;
27145;SDS011;17980;51.744;7.190;2023-05-10T01:24:14;3.40;;;2.90;;
27145;SDS011;17980;51.744;7.190;2023-05-10T01:30:07;2.67;;;2.10;;
27145;SDS011;17980;51.744;7.190;2023-05-10T01:33:01;1.70;;;1.60;;
27145;SDS011;17980;51.744;7.190;2023-05-10T01:35:36;1.80;;;1.40;;
27145;SDS011;17980;51.744;7.190;2023-05-10T01:38:15;1.57;;;1.40;;
27145;SDS011;17980;51.744;7.190;2023-05-10T01:40:48;2.50;;;1.30;;
27145;SDS011;17980;51.744;7.190;2023-05-10T01:43:30;1.10;;;1.00;;
27145;SDS011;17980;51.744;7.190;2023-05-10T01:46:00;1.00;;;0.90;;
27145;SDS011;17980;51.744;7.190;2023-05-10T01:48:32;1.60;;;1.10;;
27145;SDS011;17980;51.744;7.190;2023-05-10T01:51:10;1.10;;;1.00;;
27145;SDS011;17980;51.744;7.190;2023-05-10T01:53:38;1.43;;;0.70;;
27145;SDS011;17980;51.744;7.190;2023-05-10T01:56:07;2.13;;;1.10;;
27145;SDS011;17980;51.744;7.190;2023-05-10T01:58:36;1.00;;;0.90;;
27145;SDS011;17980;51.744;7.190;2023-05-10T02:01:14;1.50;;;0.90;;
27145;SDS011;17980;51.744;7.190;2023-05-10T02:03:42;2.00;;;0.70;;
27145;SDS011;17980;51.744;7.190;2023-05-10T02:06:10;1.60;;;0.70;;
27145;SDS011;17980;51.744;7.190;2023-05-10T02:08:40;1.70;;;0.80;;
27145;SDS011;17980;51.744;7.190;2023-05-10T02:11:18;1.60;;;1.00;;
27145;SDS011;17980;51.744;7.190;2023-05-10T02:13:47;1.23;;;1.10;;
27145;SDS011;17980;51.744;7.190;2023-05-10T02:16:15;0.67;;;0.60;;
27145;SDS011;17980;51.744;7.190;2023-05-10T02:18:46;4.17;;;0.77;;
27145;SDS011;17980;51.744;7.190;2023-05-10T02:21:23;1.13;;;0.60;;
27145;SDS011;17980;51.744;7.190;2023-05-10T02:23:52;0.50;;;0.50;;
27145;SDS011;17980;51.744;7.190;2023-05-10T02:26:21;0.70;;;0.70;;
27145;SDS011;17980;51.744;7.190;2023-05-10T02:28:59;3.07;;;0.80;;
27145;SDS011;17980;51.744;7.190;2023-05-10T02:31:29;0.70;;;0.70;;
27145;SDS011;17980;51.744;7.190;2023-05-10T02:33:58;2.63;;;0.80;;
27145;SDS011;17980;51.744;7.190;2023-05-10T02:36:26;1.07;;;0.80;;
27145;SDS011;17980;51.744;7.190;2023-05-10T02:38:55;1.70;;;0.90;;
27145;SDS011;17980;51.744;7.190;2023-05-10T02:41:32;1.47;;;0.77;;
27145;SDS011;17980;51.744;7.190;2023-05-10T02:43:59;1.10;;;0.90;;
27145;SDS011;17980;51.744;7.190;2023-05-10T02:46:29;1.37;;;0.90;;
27145;SDS011;17980;51.744;7.190;2023-05-10T02:48:56;2.00;;;1.10;;
27145;SDS011;17980;51.744;7.190;2023-05-10T02:51:34;1.17;;;0.80;;
27145;SDS011;17980;51.744;7.190;2023-05-10T02:54:06;2.03;;;1.50;;
27145;SDS011;17980;51.744;7.190;2023-05-10T02:56:46;1.40;;;1.30;;
27145;SDS011;17980;51.744;7.190;2023-05-10T02:59:13;1.50;;;1.10;;
27145;SDS011;17980;51.744;7.190;2023-05-10T03:01:50;1.90;;;1.80;;
27145;SDS011;17980;51.744;7.190;2023-05-10T03:04:18;2.30;;;2.10;;
27145;SDS011;17980;51.744;7.190;2023-05-10T03:06:45;2.43;;;1.83;;
27145;SDS011;17980;51.744;7.190;2023-05-10T03:09:13;2.40;;;1.77;;
27145;SDS011;17980;51.744;7.190;2023-05-10T03:11:55;2.97;;;2.77;;
27145;SDS011;17980;51.744;7.190;2023-05-10T03:21:26;3.30;;;2.97;;
27145;SDS011;17980;51.744;7.190;2023-05-10T03:27:18;6.20;;;4.10;;
27145;SDS011;17980;51.744;7.190;2023-05-10T03:29:46;5.37;;;3.90;;
27145;SDS011;17980;51.744;7.190;2023-05-10T03:32:13;8.10;;;6.03;;
27145;SDS011;17980;51.744;7.190;2023-05-10T03:34:41;5.30;;;4.87;;
27145;SDS011;17980;51.744;7.190;2023-05-10T03:37:18;8.23;;;6.50;;
27145;SDS011;17980;51.744;7.190;2023-05-10T03:39:46;9.17;;;7.10;;
27145;SDS011;17980;51.744;7.190;2023-05-10T03:42:13;11.33;;;9.27;;
27145;SDS011;17980;51.744;7.190;2023-05-10T03:44:40;12.43;;;8.80;;
27145;SDS011;17980;51.744;7.190;2023-05-10T03:47:23;12.13;;;8.80;;
27145;SDS011;17980;51.744;7.190;2023-05-10T03:49:50;15.13;;;9.60;;
27145;SDS011;17980;51.744;7.190;2023-05-10T03:52:18;17.23;;;11.20;;
27145;SDS011;17980;51.744;7.190;2023-05-10T03:54:45;17.67;;;11.57;;
27145;SDS011;17980;51.744;7.190;2023-05-10T03:57:27;19.13;;;12.00;;
27145;SDS011;17980;51.744;7.190;2023-05-10T03:59:54;20.47;;;13.33;;
27145;SDS011;17980;51.744;7.190;2023-05-10T04:02:21;23.03;;;14.77;;
27145;SDS011;17980;51.744;7.190;2023-05-10T04:04:48;20.90;;;15.10;;
27145;SDS011;17980;51.744;7.190;2023-05-10T04:07:25;24.53;;;15.03;;
27145;SDS011;17980;51.744;7.190;2023-05-10T04:09:52;25.97;;;15.70;;
27145;SDS011;17980;51.744;7.190;2023-05-10T04:12:19;29.60;;;19.00;;
27145;SDS011;17980;51.744;7.190;2023-05-10T04:14:47;25.40;;;17.97;;
27145;SDS011;17980;51.744;7.190;2023-05-10T04:17:23;28.30;;;18.53;;
27145;SDS011;17980;51.744;7.190;2023-05-10T04:19:51;26.70;;;17.80;;
27145;SDS011;17980;51.744;7.190;2023-05-10T04:22:20;28.23;;;19.17;;
27145;SDS011;17980;51.744;7.190;2023-05-10T04:24:47;29.07;;;19.27;;
27145;SDS011;17980;51.744;7.190;2023-05-10T04:27:24;28.73;;;18.27;;
27145;SDS011;17980;51.744;7.190;2023-05-10T04:29:52;28.87;;;19.27;;
27145;SDS011;17980;51.744;7.190;2023-05-10T04:32:19;24.80;;;18.73;;
27145;SDS011;17980;51.744;7.190;2023-05-10T04:34:46;25.60;;;19.37;;
27145;SDS011;17980;51.744;7.190;2023-05-10T04:37:23;27.13;;;19.07;;
27145;SDS011;17980;51.744;7.190;2023-05-10T04:42:17;30.07;;;21.33;;
27145;SDS011;17980;51.744;7.190;2023-05-10T04:47:21;28.50;;;21.00;;
27145;SDS011;17980;51.744;7.190;2023-05-10T04:49:48;31.47;;;22.00;;
27145;SDS011;17980;51.744;7.190;2023-05-10T04:52:15;34.73;;;22.00;;
27145;SDS011;17980;51.744;7.190;2023-05-10T04:54:43;31.37;;;23.07;;
27145;SDS011;17980;51.744;7.190;2023-05-10T04:57:20;32.40;;;23.60;;
27145;SDS011;17980;51.744;7.190;2023-05-10T04:59:47;30.63;;;21.67;;
27145;SDS011;17980;51.744;7.190;2023-05-10T05:02:14;35.47;;;23.53;;
27145;SDS011;17980;51.744;7.190;2023-05-10T05:04:42;37.40;;;24.27;;
27145;SDS011;17980;51.744;7.190;2023-05-10T05:07:18;29.27;;;22.00;;
27145;SDS011;17980;51.744;7.190;2023-05-10T05:09:46;32.13;;;23.83;;
27145;SDS011;17980;51.744;7.190;2023-05-10T05:12:13;31.77;;;23.47;;
27145;SDS011;17980;51.744;7.190;2023-05-10T05:14:40;38.73;;;25.63;;
27145;SDS011;17980;51.744;7.190;2023-05-10T05:17:17;34.10;;;24.10;;
27145;SDS011;17980;51.744;7.190;2023-05-10T05:19:44;36.73;;;25.70;;
27145;SDS011;17980;51.744;7.190;2023-05-10T05:22:12;36.93;;;26.70;;
27145;SDS011;17980;51.744;7.190;2023-05-10T05:24:39;38.50;;;27.83;;
27145;SDS011;17980;51.744;7.190;2023-05-10T05:27:15;39.53;;;26.77;;
27145;SDS011;17980;51.744;7.190;2023-05-10T05:29:43;41.43;;;29.77;;
27145;SDS011;17980;51.744;7.190;2023-05-10T05:32:10;42.80;;;28.47;;
27145;SDS011;17980;51.744;7.190;2023-05-10T05:34:38;42.07;;;30.20;;
27145;SDS011;17980;51.744;7.190;2023-05-10T05:37:14;42.67;;;28.27;;
27145;SDS011;17980;51.744;7.190;2023-05-10T05:39:42;44.83;;;29.10;;
27145;SDS011;17980;51.744;7.190;2023-05-10T05:42:19;42.80;;;30.33;;
27145;SDS011;17980;51.744;7.190;2023-05-10T05:44:46;40.63;;;28.20;;
27145;SDS011;17980;51.744;7.190;2023-05-10T05:47:26;35.57;;;26.63;;
27145;SDS011;17980;51.744;7.190;2023-05-10T05:49:54;39.47;;;26.60;;
27145;SDS011;17980;51.744;7.190;2023-05-10T05:52:21;35.67;;;25.53;;
27145;SDS011;17980;51.744;7.190;2023-05-10T05:54:48;36.77;;;25.47;;
27145;SDS011;17980;51.744;7.190;2023-05-10T05:57:25;37.10;;;26.23;;
27145;SDS011;17980;51.744;7.190;2023-05-10T05:59:52;37.20;;;26.87;;
27145;SDS011;17980;51.744;7.190;2023-05-10T06:02:20;39.23;;;27.33;;
27145;SDS011;17980;51.744;7.190;2023-05-10T06:04:47;38.23;;;26.63;;
27145;SDS011;17980;51.744;7.190;2023-05-10T06:07:24;38.93;;;26.37;;
27145;SDS011;17980;51.744;7.190;2023-05-10T06:09:51;37.37;;;27.90;;
27145;SDS011;17980;51.744;7.190;2023-05-10T06:12:18;37.03;;;26.03;;
27145;SDS011;17980;51.744;7.190;2023-05-10T06:14:46;35.17;;;25.10;;
27145;SDS011;17980;51.744;7.190;2023-05-10T06:17:23;37.03;;;26.23;;
27145;SDS011;17980;51.744;7.190;2023-05-10T06:19:50;33.33;;;25.63;;
27145;SDS011;17980;51.744;7.190;2023-05-10T06:22:17;42.93;;;27.83;;
27145;SDS011;17980;51.744;7.190;2023-05-10T06:24:45;39.87;;;27.97;;
27145;SDS011;17980;51.744;7.190;2023-05-10T06:27:22;35.23;;;26.47;;
27145;SDS011;17980;51.744;7.190;2023-05-10T06:29:50;39.20;;;28.13;;
27145;SDS011;17980;51.744;7.190;2023-05-10T06:32:27;37.37;;;27.83;;
27145;SDS011;17980;51.744;7.190;2023-05-10T06:35:04;36.87;;;26.70;;
27145;SDS011;17980;51.744;7.190;2023-05-10T06:37:33;36.47;;;27.83;;
27145;SDS011;17980;51.744;7.190;2023-05-10T06:40:11;34.47;;;26.40;;
27145;SDS011;17980;51.744;7.190;2023-05-10T06:42:39;37.10;;;26.67;;
27145;SDS011;17980;51.744;7.190;2023-05-10T06:45:21;37.60;;;26.60;;
27145;SDS011;17980;51.744;7.190;2023-05-10T06:47:48;39.90;;;27.00;;
27145;SDS011;17980;51.744;7.190;2023-05-10T06:50:25;35.57;;;26.73;;
27145;SDS011;17980;51.744;7.190;2023-05-10T06:52:53;35.53;;;26.63;;
27145;SDS011;17980;51.744;7.190;2023-05-10T06:55:21;39.60;;;28.57;;
27145;SDS011;17980;51.744;7.190;2023-05-10T06:57:58;35.67;;;26.20;;
27145;SDS011;17980;51.744;7.190;2023-05-10T07:00:25;33.90;;;25.93;;
27145;SDS011;17980;51.744;7.190;2023-05-10T07:02:52;35.13;;;25.37;;
27145;SDS011;17980;51.744;7.190;2023-05-10T07:05:20;31.57;;;24.13;;
27145;SDS011;17980;51.744;7.190;2023-05-10T07:08:04;29.30;;;24.27;;
27145;SDS011;17980;51.744;7.190;2023-05-10T07:13:07;30.63;;;23.30;;
27145;SDS011;17980;51.744;7.190;2023-05-10T07:15:44;28.53;;;22.60;;
27145;SDS011;17980;51.744;7.190;2023-05-10T07:18:11;29.10;;;22.73;;
27145;SDS011;17980;51.744;7.190;2023-05-10T07:20:48;24.67;;;20.83;;
27145;SDS011;17980;51.744;7.190;2023-05-10T07:23:15;25.63;;;21.73;;
27145;SDS011;17980;51.744;7.190;2023-05-10T07:25:44;28.10;;;23.33;;
27145;SDS011;17980;51.744;7.190;2023-05-10T07:28:21;24.27;;;20.80;;
27145;SDS011;17980;51.744;7.190;2023-05-10T07:30:50;23.50;;;20.83;;
27145;SDS011;17980;51.744;7.190;2023-05-10T07:33:17;22.97;;;20.47;;
27145;SDS011;17980;51.744;7.190;2023-05-10T07:38:20;22.70;;;20.27;;
27145;SDS011;17980;51.744;7.190;2023-05-10T07:40:47;27.03;;;23.97;;
27145;SDS011;17980;51.744;7.190;2023-05-10T07:43:24;28.30;;;23.77;;
27145;SDS011;17980;51.744;7.190;2023-05-10T07:45:52;27.27;;;23.47;;
27145;SDS011;17980;51.744;7.190;2023-05-10T07:48:28;25.87;;;21.57;;
27145;SDS011;17980;51.744;7.190;2023-05-10T07:50:56;22.63;;;20.23;;
27145;SDS011;17980;51.744;7.190;2023-05-10T07:53:39;29.57;;;21.30;;
27145;SDS011;17980;51.744;7.190;2023-05-10T07:56:20;23.53;;;21.10;;
27145;SDS011;17980;51.744;7.190;2023-05-10T07:58:57;23.00;;;20.43;;
27145;SDS011;17980;51.744;7.190;2023-05-10T08:01:26;22.87;;;19.83;;
27145;SDS011;17980;51.744;7.190;2023-05-10T08:04:09;26.10;;;21.80;;
27145;SDS011;17980;51.744;7.190;2023-05-10T08:06:37;25.77;;;20.73;;
27145;SDS011;17980;51.744;7.190;2023-05-10T08:09:14;32.00;;;20.83;;
27145;SDS011;17980;51.744;7.190;2023-05-10T08:11:41;25.30;;;21.63;;
27145;SDS011;17980;51.744;7.190;2023-05-10T08:16:45;24.87;;;21.13;;
27145;SDS011;17980;51.744;7.190;2023-05-10T08:19:13;22.90;;;20.47;;
27145;SDS011;17980;51.744;7.190;2023-05-10T08:21:42;24.50;;;20.70;;
27145;SDS011;17980;51.744;7.190;2023-05-10T08:24:09;23.47;;;20.97;;
27145;SDS011;17980;51.744;7.190;2023-05-10T08:26:46;21.30;;;19.00;;
27145;SDS011;17980;51.744;7.190;2023-05-10T08:29:13;22.17;;;18.47;;
27145;SDS011;17980;51.744;7.190;2023-05-10T08:31:50;20.13;;;18.03;;
27145;SDS011;17980;51.744;7.190;2023-05-10T08:34:17;20.10;;;18.03;;
27145;SDS011;17980;51.744;7.190;2023-05-10T08:36:54;21.87;;;17.93;;
27145;SDS011;17980;51.744;7.190;2023-05-10T08:39:22;21.77;;;17.47;;
27145;SDS011;17980;51.744;7.190;2023-05-10T08:41:49;18.60;;;16.33;;
27145;SDS011;17980;51.744;7.190;2023-05-10T08:46:54;25.90;;;18.73;;
27145;SDS011;17980;51.744;7.190;2023-05-10T08:49:22;21.00;;;17.27;;
27145;SDS011;17980;51.744;7.190;2023-05-10T08:51:54;25.40;;;17.93;;
27145;SDS011;17980;51.744;7.190;2023-05-10T08:54:23;22.33;;;17.43;;
27145;SDS011;17980;51.744;7.190;2023-05-10T08:57:08;19.87;;;17.77;;
27145;SDS011;17980;51.744;7.190;2023-05-10T08:59:35;24.30;;;19.43;;
27145;SDS011;17980;51.744;7.190;2023-05-10T09:02:12;23.50;;;19.60;;
27145;SDS011;17980;51.744;7.190;2023-05-10T09:04:40;27.07;;;20.43;;
27145;SDS011;17980;51.744;7.190;2023-05-10T09:07:19;24.73;;;19.87;;
27145;SDS011;17980;51.744;7.190;2023-05-10T09:09:47;22.10;;;19.73;;
27145;SDS011;17980;51.744;7.190;2023-05-10T09:12:24;22.67;;;20.27;;
27145;SDS011;17980;51.744;7.190;2023-05-10T09:14:51;23.07;;;19.97;;
27145;SDS011;17980;51.744;7.190;2023-05-10T09:17:23;24.90;;;19.93;;
27145;SDS011;17980;51.744;7.190;2023-05-10T09:20:00;23.13;;;19.13;;
27145;SDS011;17980;51.744;7.190;2023-05-10T09:22:32;23.83;;;19.20;;
27145;SDS011;17980;51.744;7.190;2023-05-10T09:25:06;24.27;;;20.40;;
27145;SDS011;17980;51.744;7.190;2023-05-10T09:27:50;25.87;;;20.97;;
27145;SDS011;17980;51.744;7.190;2023-05-10T09:30:25;30.73;;;21.43;;
27145;SDS011;17980;51.744;7.190;2023-05-10T09:32:59;24.63;;;19.23;;
27145;SDS011;17980;51.744;7.190;2023-05-10T09:35:28;24.80;;;18.93;;
27145;SDS011;17980;51.744;7.190;2023-05-10T09:38:09;22.03;;;19.47;;
27145;SDS011;17980;51.744;7.190;2023-05-10T09:40:37;20.83;;;18.27;;
27145;SDS011;17980;51.744;7.190;2023-05-10T09:43:19;21.53;;;17.97;;
27145;SDS011;17980;51.744;7.190;2023-05-10T09:48:28;20.20;;;15.73;;
27145;SDS011;17980;51.744;7.190;2023-05-10T09:50:58;18.07;;;15.23;;
27145;SDS011;17980;51.744;7.190;2023-05-10T09:53:26;15.30;;;13.70;;
27145;SDS011;17980;51.744;7.190;2023-05-10T09:55:54;15.90;;;14.30;;
27145;SDS011;17980;51.744;7.190;2023-05-10T09:58:33;16.33;;;14.13;;
27145;SDS011;17980;51.744;7.190;2023-05-10T10:01:04;21.83;;;14.87;;
27145;SDS011;17980;51.744;7.190;2023-05-10T10:03:42;18.13;;;15.57;;
27145;SDS011;17980;51.744;7.190;2023-05-10T10:06:09;17.80;;;14.60;;
27145;SDS011;17980;51.744;7.190;2023-05-10T10:08:46;21.83;;;15.03;;
27145;SDS011;17980;51.744;7.190;2023-05-10T10:11:13;20.23;;;14.17;;
27145;SDS011;17980;51.744;7.190;2023-05-10T10:13:50;17.27;;;14.90;;
27145;SDS011;17980;51.744;7.190;2023-05-10T10:16:17;19.60;;;16.70;;
27145;SDS011;17980;51.744;7.190;2023-05-10T10:18:55;20.40;;;17.10;;
27145;SDS011;17980;51.744;7.190;2023-05-10T10:21:22;19.47;;;15.83;;
27145;SDS011;17980;51.744;7.190;2023-05-10T10:23:59;21.60;;;17.30;;
27145;SDS011;17980;51.744;7.190;2023-05-10T10:26:27;19.77;;;16.97;;
27145;SDS011;17980;51.744;7.190;2023-05-10T10:29:07;21.33;;;16.70;;
27145;SDS011;17980;51.744;7.190;2023-05-10T10:31:46;26.87;;;15.20;;
27145;SDS011;17980;51.744;7.190;2023-05-10T10:34:25;17.40;;;14.23;;
27145;SDS011;17980;51.744;7.190;2023-05-10T10:37:04;24.77;;;16.80;;
27145;SDS011;17980;51.744;7.190;2023-05-10T10:42:08;23.37;;;17.03;;
27145;SDS011;17980;51.744;7.190;2023-05-10T10:47:23;20.80;;;16.83;;
27145;SDS011;17980;51.744;7.190;2023-05-10T10:50:04;23.23;;;17.53;;
27145;SDS011;17980;51.744;7.190;2023-05-10T10:52:36;21.43;;;17.00;;
27145;SDS011;17980;51.744;7.190;2023-05-10T10:55:14;22.80;;;15.70;;
27145;SDS011;17980;51.744;7.190;2023-05-10T10:57:46;21.50;;;16.17;;
27145;SDS011;17980;51.744;7.190;2023-05-10T11:00:21;20.67;;;15.83;;
27145;SDS011;17980;51.744;7.190;2023-05-10T11:03:00;20.57;;;15.13;;
27145;SDS011;17980;51.744;7.190;2023-05-10T11:08:18;18.07;;;15.03;;
27145;SDS011;17980;51.744;7.190;2023-05-10T11:10:51;20.50;;;15.10;;
27145;SDS011;17980;51.744;7.190;2023-05-10T11:13:30;19.97;;;12.80;;
27145;SDS011;17980;51.744;7.190;2023-05-10T11:15:58;15.90;;;13.93;;
27145;SDS011;17980;51.744;7.190;2023-05-10T11:18:28;18.87;;;14.50;;
27145;SDS011;17980;51.744;7.190;2023-05-10T11:21:05;18.53;;;14.87;;
27145;SDS011;17980;51.744;7.190;2023-05-10T11:23:48;18.50;;;14.27;;
27145;SDS011;17980;51.744;7.190;2023-05-10T11:26:25;17.83;;;12.63;;
27145;SDS011;17980;51.744;7.190;2023-05-10T11:28:55;15.57;;;12.60;;
27145;SDS011;17980;51.744;7.190;2023-05-10T11:31:22;16.10;;;13.10;;
27145;SDS011;17980;51.744;7.190;2023-05-10T11:33:59;14.97;;;12.80;;
27145;SDS011;17980;51.744;7.190;2023-05-10T11:41:52;14.93;;;11.33;;
27145;SDS011;17980;51.744;7.190;2023-05-10T11:44:20;13.63;;;10.70;;
27145;SDS011;17980;51.744;7.190;2023-05-10T11:46:49;13.13;;;11.73;;
27145;SDS011;17980;51.744;7.190;2023-05-10T11:49:16;12.37;;;10.50;;
27145;SDS011;17980;51.744;7.190;2023-05-10T11:51:53;13.40;;;9.53;;
27145;SDS011;17980;51.744;7.190;2023-05-10T11:54:30;12.03;;;9.40;;
27145;SDS011;17980;51.744;7.190;2023-05-10T11:56:59;13.27;;;10.53;;
27145;SDS011;17980;51.744;7.190;2023-05-10T11:59:36;12.83;;;9.53;;
27145;SDS011;17980;51.744;7.190;2023-05-10T12:02:04;16.60;;;9.10;;
27145;SDS011;17980;51.744;7.190;2023-05-10T12:04:41;12.90;;;9.87;;
27145;SDS011;17980;51.744;7.190;2023-05-10T12:07:09;12.40;;;10.57;;
27145;SDS011;17980;51.744;7.190;2023-05-10T12:10:03;16.13;;;10.17;;
27145;SDS011;17980;51.744;7.190;2023-05-10T12:12:38;12.17;;;9.80;;
27145;SDS011;17980;51.744;7.190;2023-05-10T12:15:10;11.03;;;9.87;;
27145;SDS011;17980;51.744;7.190;2023-05-10T12:17:41;12.00;;;9.27;;
27145;SDS011;17980;51.744;7.190;2023-05-10T12:20:30;9.30;;;7.40;;
27145;SDS011;17980;51.744;7.190;2023-05-10T12:22:58;11.60;;;7.60;;
27145;SDS011;17980;51.744;7.190;2023-05-10T12:25:30;9.10;;;8.13;;
27145;SDS011;17980;51.744;7.190;2023-05-10T12:27:58;8.80;;;7.90;;
27145;SDS011;17980;51.744;7.190;2023-05-10T12:30:28;10.83;;;7.20;;
27145;SDS011;17980;51.744;7.190;2023-05-10T12:32:59;10.80;;;7.23;;
27145;SDS011;17980;51.744;7.190;2023-05-10T12:35:46;10.00;;;8.27;;
27145;SDS011;17980;51.744;7.190;2023-05-10T12:38:25;12.80;;;9.53;;
27145;SDS011;17980;51.744;7.190;2023-05-10T12:41:03;11.70;;;9.73;;
27145;SDS011;17980;51.744;7.190;2023-05-10T12:43:32;11.20;;;9.27;;
27145;SDS011;17980;51.744;7.190;2023-05-10T12:46:11;10.37;;;8.70;;
27145;SDS011;17980;51.744;7.190;2023-05-10T12:48:40;12.50;;;9.00;;
27145;SDS011;17980;51.744;7.190;2023-05-10T12:51:08;10.70;;;9.67;;
27145;SDS011;17980;51.744;7.190;2023-05-10T12:53:38;10.20;;;9.10;;
27145;SDS011;17980;51.744;7.190;2023-05-10T12:56:15;12.87;;;9.10;;
27145;SDS011;17980;51.744;7.190;2023-05-10T12:58:43;9.87;;;8.87;;
27145;SDS011;17980;51.744;7.190;2023-05-10T13:01:25;9.17;;;8.27;;
27145;SDS011;17980;51.744;7.190;2023-05-10T13:03:53;9.53;;;8.63;;
27145;SDS011;17980;51.744;7.190;2023-05-10T13:06:20;9.43;;;8.53;;
27145;SDS011;17980;51.744;7.190;2023-05-10T13:08:59;10.63;;;9.10;;
27145;SDS011;17980;51.744;7.190;2023-05-10T13:11:26;10.97;;;9.73;;
27145;SDS011;17980;51.744;7.190;2023-05-10T13:13:54;11.23;;;9.30;;
27145;SDS011;17980;51.744;7.190;2023-05-10T13:16:22;11.30;;;8.53;;
27145;SDS011;17980;51.744;7.190;2023-05-10T13:19:04;9.60;;;8.60;;
27145;SDS011;17980;51.744;7.190;2023-05-10T13:21:31;9.17;;;8.27;;
27145;SDS011;17980;51.744;7.190;2023-05-10T13:23:59;13.03;;;8.70;;
27145;SDS011;17980;51.744;7.190;2023-05-10T13:26:39;10.13;;;8.53;;
27145;SDS011;17980;51.744;7.190;2023-05-10T13:29:06;9.23;;;8.17;;
27145;SDS011;17980;51.744;7.190;2023-05-10T13:31:44;10.83;;;9.00;;
27145;SDS011;17980;51.744;7.190;2023-05-10T13:34:13;9.47;;;8.57;;
27145;SDS011;17980;51.744;7.190;2023-05-10T13:36:53;11.13;;;8.87;;
27145;SDS011;17980;51.744;7.190;2023-05-10T13:39:24;10.50;;;8.77;;
27145;SDS011;17980;51.744;7.190;2023-05-10T13:42:00;10.90;;;8.97;;
27145;SDS011;17980;51.744;7.190;2023-05-10T13:44:28;11.87;;;8.87;;
27145;SDS011;17980;51.744;7.190;2023-05-10T13:46:56;8.10;;;7.17;;
27145;SDS011;17980;51.744;7.190;2023-05-10T13:49:33;10.90;;;8.03;;
27145;SDS011;17980;51.744;7.190;2023-05-10T13:52:00;9.73;;;8.77;;
27145;SDS011;17980;51.744;7.190;2023-05-10T13:54:30;9.87;;;8.37;;
27145;SDS011;17980;51.744;7.190;2023-05-10T13:57:07;11.47;;;8.57;;
27145;SDS011;17980;51.744;7.190;2023-05-10T13:59:35;14.07;;;8.50;;
27145;SDS011;17980;51.744;7.190;2023-05-10T14:02:12;12.10;;;7.97;;
27145;SDS011;17980;51.744;7.190;2023-05-10T14:04:40;10.57;;;8.90;;
27145;SDS011;17980;51.744;7.190;2023-05-10T14:07:07;10.33;;;9.23;;
27145;SDS011;17980;51.744;7.190;2023-05-10T14:09:45;12.77;;;11.03;;
27145;SDS011;17980;51.744;7.190;2023-05-10T14:12:12;12.80;;;10.07;;
27145;SDS011;17980;51.744;7.190;2023-05-10T14:14:40;9.50;;;8.10;;
27145;SDS011;17980;51.744;7.190;2023-05-10T14:17:07;14.00;;;10.73;;
27145;SDS011;17980;51.744;7.190;2023-05-10T14:19:44;12.10;;;10.40;;
27145;SDS011;17980;51.744;7.190;2023-05-10T14:22:12;12.53;;;11.23;;
27145;SDS011;17980;51.744;7.190;2023-05-10T14:24:51;13.63;;;11.23;;
27145;SDS011;17980;51.744;7.190;2023-05-10T14:27:19;10.53;;;9.27;;
27145;SDS011;17980;51.744;7.190;2023-05-10T14:29:56;11.37;;;9.77;;
27145;SDS011;17980;51.744;7.190;2023-05-10T14:32:23;10.67;;;7.67;;
27145;SDS011;17980;51.744;7.190;2023-05-10T14:35:06;5.97;;;5.37;;
27145;SDS011;17980;51.744;7.190;2023-05-10T14:40:11;7.80;;;6.57;;
27145;SDS011;17980;51.744;7.190;2023-05-10T14:42:41;12.77;;;5.90;;
27145;SDS011;17980;51.744;7.190;2023-05-10T14:45:12;6.27;;;5.30;;
27145;SDS011;17980;51.744;7.190;2023-05-10T14:47:40;6.90;;;5.37;;
27145;SDS011;17980;51.744;7.190;2023-05-10T14:50:16;6.57;;;5.87;;
27145;SDS011;17980;51.744;7.190;2023-05-10T14:55:21;5.83;;;4.90;;
27145;SDS011;17980;51.744;7.190;2023-05-10T14:57:48;5.03;;;4.40;;
27145;SDS011;17980;51.744;7.190;2023-05-10T15:00:25;5.97;;;4.10;;
27145;SDS011;17980;51.744;7.190;2023-05-10T15:02:53;6.57;;;4.30;;
27145;SDS011;17980;51.744;7.190;2023-05-10T15:05:20;4.33;;;3.93;;
27145;SDS011;17980;51.744;7.190;2023-05-10T15:08:11;4.83;;;4.33;;
27145;SDS011;17980;51.744;7.190;2023-05-10T15:10:38;5.67;;;4.53;;
27145;SDS011;17980;51.744;7.190;2023-05-10T15:13:20;7.50;;;4.67;;
27145;SDS011;17980;51.744;7.190;2023-05-10T15:18:23;4.97;;;4.47;;
27145;SDS011;17980;51.744;7.190;2023-05-10T15:20:51;7.83;;;3.60;;
27145;SDS011;17980;51.744;7.190;2023-05-10T15:23:18;5.70;;;3.57;;
27145;SDS011;17980;51.744;7.190;2023-05-10T15:25:46;5.70;;;4.83;;
27145;SDS011;17980;51.744;7.190;2023-05-10T15:28:22;5.00;;;4.60;;
27145;SDS011;17980;51.744;7.190;2023-05-10T15:30:50;15.13;;;5.67;;
27145;SDS011;17980;51.744;7.190;2023-05-10T15:33:27;6.50;;;4.57;;
27145;SDS011;17980;51.744;7.190;2023-05-10T15:35:54;5.87;;;4.90;;
27145;SDS011;17980;51.744;7.190;2023-05-10T15:38:31;5.83;;;4.60;;
27145;SDS011;17980;51.744;7.190;2023-05-10T15:43:35;5.43;;;4.60;;
27145;SDS011;17980;51.744;7.190;2023-05-10T15:46:05;5.47;;;4.90;;
27145;SDS011;17980;51.744;7.190;2023-05-10T15:48:41;5.20;;;4.50;;
27145;SDS011;17980;51.744;7.190;2023-05-10T15:51:09;8.57;;;4.47;;
27145;SDS011;17980;51.744;7.190;2023-05-10T15:53:46;5.07;;;3.23;;